COMO2: Grand River, Commerce, OK

                                SHEF ID:       COMO2     Neosho River nr Commerce, OK
STATION TYPE:
Regulating: Stage = 15.00, Flow = 21598

PRECIP STAGE STAGE(2) RIV-FLOW BAT-LOAD
in ft ft cfs volt
Ccp-Rev Ccp-Rev Ccp-Rev Ccp-Rev Ccp-Rev
(America/Chicago)
02/16 00:00 0.00 4.96 ---- 3960 12.37
02/16 01:00 0.00 4.99 ---- 4012 12.35
02/16 02:00 0.00 5.01 ---- 4046 12.33
02/16 03:00 0.00 5.03 ---- 4080 12.31
02/16 04:00 0.00 5.06 ---- 4131 12.28
02/16 05:00 0.00 5.07 ---- 4148 12.26
02/16 06:00 0.00 5.11 ---- 4217 12.24
02/16 07:00 0.00 5.16 ---- 4303 12.23
02/16 08:00 0.00 5.23 ---- 4423 12.57
02/16 09:00 0.00 5.32 ---- 4577 13.32
02/16 10:00 0.00 5.45 ---- 4799 13.26
02/16 11:00 0.00 5.58 ---- 5022 13.13
02/16 12:00 0.00 5.73 ---- 5279 13.06
02/16 13:00 0.00 5.88 ---- 5535 13.05
02/16 14:00 0.00 6.03 ---- 5793 13.02
02/16 15:00 0.00 6.18 ---- 6056 12.96
02/16 16:00 0.00 6.33 ---- 6318 12.87
02/16 17:00 0.00 6.44 ---- 6511 12.85
02/16 18:00 0.00 6.55 ---- 6703 12.70
02/16 19:00 0.00 6.63 ---- 6843 12.53
02/16 20:00 0.00 6.70 ---- 6966 12.46
02/16 21:00 0.00 6.74 ---- 7036 12.42
02/16 22:00 0.00 6.79 ---- 7123 12.40
02/16 23:00 0.00 6.80 ---- 7141 12.37
Data processed at Tue 17Feb2026 05:36 GMT

NOTICE: If you are parsing this page

Please convert to using our Data API. Starting early 2026 we will be migrating to: https://water.usace.army.mil with modern pages rendered in JavaScript. When this migration completes you will no longer be able to scrape this page! CWMSDataAPI (CDA)

Timeseries IDs (TSIDs)

TSIDs used from left to right in the data table
COMM.Precip-Inc.Total.1Hour.1Hour.Ccp-Rev
COMM.Stage.Inst.1Hour.0.Ccp-Rev
COMM.Stage-Alt.Inst.1Hour.0.Ccp-Rev
COMM.Flow.Inst.1Hour.0.Ccp-Rev
COMM.Volt-Battery Load.Inst.1Hour.0.Ccp-Rev

                            

All information presented herein is the property of the government of the United States of America and may be revised or deleted at any time without prior notice. Dissemination of this information without the expressed written consent of the Public Affairs Office, Tulsa District U.S. Army Corps of Engineers is strictly prohibited. These data are gathered electronically and, as presented, have NOT undergone any form of quality control. These data are NOT guaranteed to be valid or correct.